createdAt,value
2022-08-22T00:05:48.654Z,100300.50
2022-08-22T00:12:40.552Z,100284.50
2022-08-22T00:19:42.068Z,100285.34
2022-08-22T00:26:49.016Z,100286.97
2022-08-22T00:33:48.375Z,100257.28
2022-08-22T00:40:59.727Z,100281.38
2022-08-22T00:48:00.431Z,100229.97
2022-08-22T00:55:12.100Z,100283.72
2022-08-22T01:02:19.471Z,100275.22
2022-08-22T01:09:13.328Z,100274.84
2022-08-22T01:16:13.200Z,100271.59
2022-08-22T01:23:33.961Z,100262.75
2022-08-22T01:30:54.132Z,100256.31
2022-08-22T01:38:47.813Z,100260.31
2022-08-22T01:46:20.696Z,100259.91
2022-08-22T01:53:14.452Z,100251.13
2022-08-22T02:00:09.689Z,100255.09
2022-08-22T02:07:07.771Z,100212.13
2022-08-22T02:14:01.635Z,100255.06
2022-08-22T02:21:12.104Z,100259.03
2022-08-22T02:28:04.700Z,100250.63
2022-08-22T02:35:04.697Z,100253.00
2022-08-22T02:42:00.677Z,100249.38
2022-08-22T03:02:42.220Z,100246.13
2022-08-22T03:09:34.108Z,100240.97
2022-08-22T03:16:32.265Z,100182.00
2022-08-22T03:23:35.745Z,100243.75
2022-08-22T03:30:26.243Z,100240.94
2022-08-22T03:37:26.853Z,100198.38
2022-08-22T03:45:00.158Z,100244.97
2022-08-22T03:52:12.337Z,100253.38
2022-08-22T03:59:36.947Z,100268.06
2022-08-22T04:07:16.022Z,100264.38
2022-08-22T04:15:07.980Z,100264.41
2022-08-22T04:22:24.160Z,100269.19
2022-08-22T04:29:19.264Z,100271.16
2022-08-22T04:36:10.509Z,100234.19
2022-08-22T04:43:06.762Z,100168.72
2022-08-22T04:50:00.964Z,100274.44
2022-08-22T04:57:03.173Z,100282.41
2022-08-22T05:03:57.543Z,100290.00
2022-08-22T05:10:49.068Z,100289.22
2022-08-22T05:17:36.766Z,100290.75
2022-08-22T05:24:30.103Z,100255.34
2022-08-22T05:31:23.420Z,100282.38
2022-08-22T05:38:15.744Z,100283.16
2022-08-22T05:45:05.546Z,100247.41
2022-08-22T05:52:10.656Z,100285.59
2022-08-22T05:59:02.792Z,100296.88
2022-08-22T06:06:05.264Z,100290.22
2022-08-22T06:13:00.696Z,100298.34
2022-08-22T06:19:52.310Z,100192.47
2022-08-22T06:26:48.713Z,100300.56
2022-08-22T06:33:45.440Z,100309.41
2022-08-22T06:40:33.145Z,100312.25
2022-08-22T06:47:25.621Z,100315.09
2022-08-22T06:54:19.323Z,100315.84
2022-08-22T07:01:12.454Z,100285.31
2022-08-22T07:08:01.170Z,100329.78
2022-08-22T07:14:52.230Z,100323.25
2022-08-22T07:21:48.320Z,100315.59
2022-08-22T07:28:51.511Z,100315.06
2022-08-22T07:35:53.149Z,100331.34
2022-08-22T07:42:49.329Z,100334.50
2022-08-22T07:49:45.908Z,100346.03
2022-08-22T07:56:43.448Z,100337.63
2022-08-22T08:03:33.140Z,100336.75
2022-08-22T08:10:28.376Z,100338.94
2022-08-22T08:17:21.705Z,100247.66
2022-08-22T08:24:14.976Z,100335.53
2022-08-22T08:31:12.878Z,100336.94
2022-08-22T08:38:07.802Z,100341.03
2022-08-22T08:45:28.923Z,100335.16
2022-08-22T08:52:58.477Z,100330.06
2022-08-22T08:59:54.456Z,100332.56
2022-08-22T09:07:01.278Z,100315.38
2022-08-22T09:14:12.437Z,100323.13
2022-08-22T09:22:03.060Z,100318.00
2022-08-22T09:29:01.896Z,100317.16
2022-08-22T09:36:00.987Z,100305.38
2022-08-22T09:43:02.186Z,100303.22
2022-08-22T09:50:09.853Z,100221.63
2022-08-22T09:57:14.089Z,100281.00
2022-08-22T10:04:38.096Z,100271.47
2022-08-22T10:11:31.517Z,100272.97
2022-08-22T10:18:32.619Z,100262.56
2022-08-22T10:25:41.732Z,100261.41
2022-08-22T10:32:38.126Z,100251.81
2022-08-22T10:39:28.527Z,100243.88
2022-08-22T10:46:23.760Z,100252.44
2022-08-22T10:53:34.734Z,100235.81
2022-08-22T11:00:46.592Z,100231.63
2022-08-22T11:07:50.606Z,100237.56
2022-08-22T11:15:28.458Z,100227.97
2022-08-22T11:22:33.688Z,100227.34
2022-08-22T11:29:38.708Z,100214.91
2022-08-22T11:36:38.914Z,100173.66
2022-08-22T11:43:52.200Z,100218.91
2022-08-22T11:50:42.335Z,100200.97
2022-08-22T11:57:36.680Z,100207.19
2022-08-22T12:04:34.377Z,100201.19
2022-08-22T12:11:29.881Z,100197.06
2022-08-22T12:18:47.633Z,100192.44
2022-08-22T12:26:03.511Z,100186.66
2022-08-22T12:33:22.867Z,100176.88
2022-08-22T12:40:39.487Z,100176.69
2022-08-22T12:47:48.523Z,100107.59
2022-08-22T12:55:04.805Z,100157.69
2022-08-22T13:01:56.735Z,100137.22
2022-08-22T13:08:47.774Z,100153.00
2022-08-22T13:15:38.022Z,100148.13
2022-08-22T13:22:34.940Z,100145.38
2022-08-22T13:29:26.511Z,100138.63
2022-08-22T13:36:19.941Z,100138.03
2022-08-22T13:43:14.677Z,100145.03
2022-08-22T13:50:14.617Z,100056.03
2022-08-22T13:57:07.797Z,100121.06
2022-08-22T14:04:05.631Z,100121.53
2022-08-22T14:11:16.164Z,100124.03
2022-08-22T14:18:12.822Z,100109.94
2022-08-22T14:25:07.368Z,100106.94
2022-08-22T14:32:03.897Z,100098.69
2022-08-22T14:38:56.196Z,100101.00
2022-08-22T14:45:55.825Z,100094.31
2022-08-22T14:52:48.499Z,100081.84
2022-08-22T14:59:50.122Z,100034.91
2022-08-22T15:06:48.253Z,100076.44
2022-08-22T15:13:34.152Z,100082.00
2022-08-22T15:20:36.413Z,100082.56
2022-08-22T15:27:36.421Z,100071.66
2022-08-22T15:34:36.364Z,100069.91
2022-08-22T15:41:47.479Z,100073.94
2022-08-22T15:48:41.019Z,100019.38
2022-08-22T15:55:30.261Z,100058.34
2022-08-22T16:02:34.861Z,100064.03
2022-08-22T16:09:44.319Z,100047.53
2022-08-22T16:17:04.015Z,100063.78
2022-08-22T16:24:36.957Z,100052.13
2022-08-22T16:31:30.425Z,100046.84
2022-08-22T16:38:32.622Z,100051.91
2022-08-22T16:45:35.713Z,100051.56
2022-08-22T16:53:04.029Z,100049.91
2022-08-22T17:00:11.252Z,100056.41
2022-08-22T17:07:16.092Z,100061.06
2022-08-22T17:14:20.832Z,100063.63
2022-08-22T17:21:15.284Z,100061.38
2022-08-22T17:28:15.830Z,100074.16
2022-08-22T17:35:18.228Z,100063.38
2022-08-22T17:42:27.411Z,100080.44
2022-08-22T17:49:25.300Z,100077.38
2022-08-22T17:56:23.423Z,100086.63
2022-08-22T18:03:14.837Z,100081.88
2022-08-22T18:10:14.480Z,100081.22
2022-08-22T18:17:01.940Z,100082.13
2022-08-22T18:23:53.074Z,100090.97
2022-08-22T18:30:57.253Z,100100.09
2022-08-22T18:37:57.893Z,100088.84
2022-08-22T18:44:43.413Z,100103.16
2022-08-22T18:51:38.589Z,100105.78
2022-08-22T18:59:05.481Z,100094.44
2022-08-22T19:06:32.557Z,100107.94
2022-08-22T19:13:56.928Z,100062.22
2022-08-22T19:20:56.645Z,100115.69
2022-08-22T19:27:44.758Z,100122.84
2022-08-22T19:34:46.973Z,100073.31
2022-08-22T19:41:58.510Z,100133.63
2022-08-22T19:48:52.754Z,100132.69
2022-08-22T19:56:03.811Z,100137.22
2022-08-22T20:03:04.348Z,100133.00
2022-08-22T20:10:07.146Z,100135.03
2022-08-22T20:17:15.736Z,100116.59
2022-08-22T20:24:01.563Z,100143.94
2022-08-22T20:30:50.164Z,100131.63
2022-08-22T20:44:53.827Z,100048.22
2022-08-22T20:51:39.323Z,100144.09
2022-08-22T20:58:31.681Z,100135.13
2022-08-22T21:05:26.173Z,100124.97
2022-08-22T21:12:11.941Z,100095.09
2022-08-22T21:19:01.632Z,100132.09
2022-08-22T21:25:59.307Z,100139.34
2022-08-22T21:32:55.177Z,100148.06
2022-08-22T21:39:48.270Z,100149.50
2022-08-22T21:46:34.264Z,100153.22
2022-08-22T21:53:31.232Z,100151.63
2022-08-22T22:00:51.435Z,100145.09
2022-08-22T22:07:40.192Z,100149.66
2022-08-22T22:14:25.688Z,100165.31
2022-08-22T22:21:13.873Z,100176.25
2022-08-22T22:28:00.545Z,100106.06
2022-08-22T22:34:46.377Z,100193.31
2022-08-22T22:41:34.401Z,100205.41
2022-08-22T22:48:24.435Z,100217.25
2022-08-22T22:55:12.856Z,100220.69
2022-08-22T23:02:16.102Z,100201.13
2022-08-22T23:09:01.911Z,100222.59
2022-08-22T23:15:47.353Z,100236.22
2022-08-22T23:22:35.728Z,100162.19
2022-08-22T23:29:21.477Z,100240.63
2022-08-22T23:36:14.719Z,100260.34
2022-08-22T23:43:02.825Z,100247.00
2022-08-22T23:49:48.332Z,100242.16
2022-08-22T23:56:37.526Z,100245.03
